Aérodrome :
LOGIN :

S'inscrire | Disclaimer

   EN    FR    IT 

 










Légende :    VFR   VFR Marginal   IFR   IFR Intensif   IFR Très Intensif
Visi : 
Plafond : 
>= 8 km
>= 3000ft
5 à 8 km
1000 à 3000 ft
1500m à 5 km
500 à 1000 ft
800 à 1500m
200 à 500 ft
< 800m
< 200 ft
Symboles :   Orages  Brouillard  Fortes neiges  Fortes précipitations  Vent > 20 kt
SIGMETs :   Divers  Orages  Givrage  Turbulence  Onde Orograph.  Cendres Volcan.






- Altitude de l'aérodrome : 299 ft
- Code IATA : EDM


LFRI - La Roche Sur Yon - Les Ajoncs

DERNIER METAR :
  • 232330Z AUTO 11005KT 9999 FEW047 BKN100 12/11 Q1005

METARs EXPIRÉS :
  • 232300Z AUTO 00000KT 9999 BKN048 BKN070 OVC080 13/12 Q1005
  • 232230Z AUTO VRB01KT CAVOK 13/12 Q1005
  • 232200Z AUTO 09003KT CAVOK 13/12 Q1005
  • 232130Z AUTO VRB02KT CAVOK 14/12 Q1005
  • 232100Z AUTO 12006KT CAVOK 13/13 Q1005 TEMPO 3000 BR BECMG BKN014

TAF AMD TAF LFRI
Valide du 23 à 20h jusqu'au 24 à 18h UTC


232033Z 2320/2418 10005KT CAVOK
TEMPO 2320/2322 3000 BR
BECMG 2322/2324 BKN014
TEMPO 2402/2415 3000 -DZRA BKN008
PROB30
TEMPO 2403/2406 -TSRA BKN008CB
BECMG 2407/2409 28010KT
BECMG 2414/2416 SCT020



MET'MAP, la Météo Aéronautique d'un coup d'oeil ! - Copyright ORBIFLY Décembre 2007 - Disclaimer

ORBIFLY MET'MAP TEAM :

Programmation & Développement : Alexandra Zaïnal
Conception & Développement : Baudouin d'Aumeries
Co-Programmation & Développement : Marc-Olivier Méhu
Soutien technique & logistique : Manuel Goepfert

Contact : metmap@orbifly.com




SOURCES & CREDITS :

   NOAA